createdAt,value
2019-01-19T00:01:49.563Z,54.23
2019-01-19T00:04:39.048Z,58.27
2019-01-19T00:07:26.798Z,59.20
2019-01-19T00:10:17.643Z,52.87
2019-01-19T00:13:07.157Z,49.03
2019-01-19T00:15:49.259Z,51.60
2019-01-19T00:18:37.354Z,46.50
2019-01-19T00:21:25.289Z,54.27
2019-01-19T00:23:58.319Z,48.10
2019-01-19T00:26:56.756Z,59.00
2019-01-19T00:29:35.922Z,44.80
2019-01-19T00:32:14.864Z,52.30
2019-01-19T00:34:54.178Z,50.13
2019-01-19T00:37:27.329Z,49.17
2019-01-19T00:40:00.824Z,50.40
2019-01-19T00:42:36.895Z,38.53
2019-01-19T00:45:21.753Z,47.13
2019-01-19T00:47:57.450Z,44.67
2019-01-19T00:50:56.305Z,50.17
2019-01-19T00:53:32.527Z,47.97
2019-01-19T00:56:28.807Z,45.10
2019-01-19T00:59:01.688Z,41.77
2019-01-19T01:01:53.944Z,89.77
2019-01-19T01:04:36.187Z,195.00
2019-01-19T01:07:30.272Z,168.57
2019-01-19T01:10:03.153Z,68.93
2019-01-19T01:12:44.934Z,43.63
2019-01-19T01:15:20.754Z,139.00
2019-01-19T01:17:53.085Z,36.13
2019-01-19T01:20:53.679Z,139.00
2019-01-19T01:23:29.531Z,137.77
2019-01-19T01:26:23.621Z,115.77
2019-01-19T01:29:26.546Z,69.67
2019-01-19T01:32:05.026Z,427.20
2019-01-19T01:34:40.846Z,152.03
2019-01-19T01:37:20.044Z,89.77
2019-01-19T01:40:02.251Z,178.93
2019-01-19T01:42:47.228Z,126.30
2019-01-19T01:45:36.949Z,175.17
2019-01-19T01:48:12.693Z,66.57
2019-01-19T01:50:51.735Z,223.53
2019-01-19T01:53:42.560Z,194.53
2019-01-19T01:56:12.868Z,140.80
2019-01-19T01:58:48.599Z,104.73
2019-01-19T02:01:24.394Z,81.20
2019-01-19T02:04:15.303Z,48.70
2019-01-19T02:06:53.931Z,47.17
2019-01-19T02:09:48.758Z,49.20
2019-01-19T02:12:39.815Z,50.47
2019-01-19T02:15:37.251Z,40.03
2019-01-19T02:18:21.805Z,33.53
2019-01-19T02:21:11.382Z,32.30
2019-01-19T02:24:06.156Z,38.77
2019-01-19T02:26:51.285Z,45.83
2019-01-19T02:29:25.813Z,46.67
2019-01-19T02:32:10.481Z,45.33
2019-01-19T02:34:56.130Z,48.77
2019-01-19T02:37:29.299Z,65.73
2019-01-19T02:40:14.294Z,51.53
2019-01-19T02:42:50.407Z,58.53
2019-01-19T02:45:35.207Z,49.90
2019-01-19T02:48:28.219Z,47.33
2019-01-19T02:51:03.971Z,59.30
2019-01-19T02:53:51.787Z,72.93
2019-01-19T02:56:33.971Z,86.40
2019-01-19T02:59:07.172Z,65.73
2019-01-19T03:01:55.068Z,92.10
2019-01-19T03:04:44.229Z,68.90
2019-01-19T03:07:41.787Z,78.90
2019-01-19T03:10:33.545Z,93.20
2019-01-19T03:13:21.132Z,81.10
2019-01-19T03:16:06.540Z,92.20
2019-01-19T03:18:39.857Z,81.27
2019-01-19T03:21:32.655Z,90.10
2019-01-19T03:24:17.737Z,99.93
2019-01-19T03:26:53.706Z,95.57
2019-01-19T03:29:42.282Z,91.27
2019-01-19T03:32:22.499Z,91.70
2019-01-19T03:34:55.580Z,147.33
2019-01-19T03:38:03.013Z,120.07
2019-01-19T03:40:36.310Z,226.13
2019-01-19T03:43:37.384Z,169.40
2019-01-19T03:46:27.038Z,220.40
2019-01-19T03:49:22.988Z,50.60
2019-01-19T03:52:08.442Z,117.77
2019-01-19T03:54:56.733Z,77.73
2019-01-19T03:57:38.383Z,131.37
2019-01-19T04:00:20.062Z,91.60
2019-01-19T04:03:02.742Z,86.20
2019-01-19T04:05:41.555Z,99.50
2019-01-19T04:08:30.971Z,86.10
2019-01-19T04:11:15.696Z,81.23
2019-01-19T04:13:54.983Z,89.60
2019-01-19T04:16:57.117Z,112.30
2019-01-19T04:19:42.121Z,103.50
2019-01-19T04:22:15.164Z,90.87
2019-01-19T04:24:48.160Z,87.23
2019-01-19T04:27:18.219Z,81.63
2019-01-19T04:29:47.990Z,66.17
2019-01-19T04:32:17.748Z,75.27
2019-01-19T04:34:47.477Z,78.23
2019-01-19T04:37:17.618Z,68.70
2019-01-19T04:39:47.430Z,90.93
2019-01-19T04:42:17.480Z,69.93
2019-01-19T04:44:47.732Z,97.07
2019-01-19T04:47:17.690Z,91.87
2019-01-19T04:49:47.750Z,68.20
2019-01-19T04:52:17.738Z,61.37
2019-01-19T04:54:48.491Z,67.47
2019-01-19T04:57:18.381Z,101.83
2019-01-19T04:59:48.408Z,105.40
2019-01-19T05:02:18.079Z,92.50
2019-01-19T05:04:47.904Z,90.10
2019-01-19T05:07:17.789Z,87.60
2019-01-19T05:09:47.969Z,84.57
2019-01-19T05:12:17.861Z,88.30
2019-01-19T05:14:47.768Z,81.17
2019-01-19T05:17:17.656Z,99.33
2019-01-19T05:19:47.522Z,94.23
2019-01-19T05:22:17.712Z,183.33
2019-01-19T05:24:47.484Z,121.80
2019-01-19T05:27:17.254Z,149.63
2019-01-19T05:29:47.434Z,134.17
2019-01-19T05:32:17.602Z,98.37
2019-01-19T05:34:47.616Z,104.57
2019-01-19T05:37:17.585Z,94.03
2019-01-19T05:39:47.555Z,124.20
2019-01-19T05:42:20.902Z,115.77
2019-01-19T05:44:51.375Z,127.97
2019-01-19T05:47:21.423Z,125.37
2019-01-19T05:49:51.987Z,149.33
2019-01-19T05:52:22.394Z,109.93
2019-01-19T05:54:52.175Z,196.83
2019-01-19T05:57:22.033Z,107.33
2019-01-19T05:59:52.050Z,133.27
2019-01-19T06:02:23.771Z,146.70
2019-01-19T06:04:53.670Z,185.97
2019-01-19T06:07:23.594Z,127.10
2019-01-19T06:09:55.758Z,75.53
2019-01-19T06:12:25.763Z,71.70
2019-01-19T06:14:55.643Z,87.67
2019-01-19T06:17:25.980Z,116.07
2019-01-19T06:19:56.425Z,138.73
2019-01-19T06:22:26.347Z,127.53
2019-01-19T06:24:56.285Z,97.03
2019-01-19T06:27:26.256Z,100.83
2019-01-19T06:29:56.337Z,93.57
2019-01-19T06:32:26.060Z,108.20
2019-01-19T06:34:56.139Z,73.80
2019-01-19T06:37:26.220Z,122.50
2019-01-19T06:39:56.135Z,126.77
2019-01-19T06:42:25.918Z,98.93
2019-01-19T06:44:55.743Z,144.00
2019-01-19T06:47:26.014Z,113.63
2019-01-19T06:49:56.476Z,100.80
2019-01-19T06:52:26.791Z,98.07
2019-01-19T06:54:56.752Z,171.57
2019-01-19T06:57:26.984Z,85.07
2019-01-19T06:59:57.193Z,95.60
2019-01-19T07:02:27.231Z,109.63
2019-01-19T07:04:57.223Z,161.60
2019-01-19T07:07:27.244Z,130.23
2019-01-19T07:09:57.414Z,149.33
2019-01-19T07:12:27.344Z,124.17
2019-01-19T07:14:58.099Z,114.43
2019-01-19T07:17:31.186Z,90.43
2019-01-19T07:20:14.407Z,173.00
2019-01-19T07:22:44.187Z,100.80
2019-01-19T07:25:14.793Z,94.27
2019-01-19T07:27:44.579Z,107.80
2019-01-19T07:30:16.487Z,131.93
2019-01-19T07:32:47.329Z,190.43
2019-01-19T07:35:17.848Z,73.87
2019-01-19T07:37:47.571Z,76.27
2019-01-19T07:40:18.778Z,104.43
2019-01-19T07:42:50.375Z,86.33
2019-01-19T07:45:20.586Z,156.23
2019-01-19T07:47:50.421Z,164.93
2019-01-19T07:50:20.452Z,118.33
2019-01-19T07:52:50.251Z,131.30
2019-01-19T07:55:20.483Z,126.83
2019-01-19T07:57:50.382Z,142.97
2019-01-19T08:00:29.403Z,125.87
2019-01-19T08:02:59.305Z,110.87
2019-01-19T08:05:29.414Z,73.00
2019-01-19T08:07:59.564Z,91.50
2019-01-19T08:10:29.394Z,98.30
2019-01-19T08:12:59.450Z,111.23
2019-01-19T08:15:30.216Z,96.60
2019-01-19T08:18:01.057Z,111.93
2019-01-19T08:20:31.293Z,128.57
2019-01-19T08:23:01.460Z,96.40
2019-01-19T08:25:31.470Z,92.07
2019-01-19T08:28:01.450Z,117.60
2019-01-19T08:30:31.601Z,88.87
2019-01-19T08:33:01.521Z,103.93
2019-01-19T08:35:31.366Z,91.63
2019-01-19T08:38:01.446Z,76.17
2019-01-19T08:40:33.963Z,156.47
2019-01-19T08:43:06.295Z,106.93
2019-01-19T08:45:36.189Z,95.00
2019-01-19T08:48:06.091Z,106.33
2019-01-19T08:50:36.174Z,100.50
2019-01-19T08:53:06.087Z,89.87
2019-01-19T08:55:36.224Z,86.23
2019-01-19T08:58:06.135Z,94.13
2019-01-19T09:00:36.154Z,80.60
2019-01-19T09:03:06.132Z,72.37
2019-01-19T09:05:36.116Z,71.93
2019-01-19T09:08:06.028Z,53.63
2019-01-19T09:10:35.854Z,52.30
2019-01-19T09:13:05.850Z,55.97
2019-01-19T09:15:35.937Z,48.20
2019-01-19T09:18:05.714Z,38.83
2019-01-19T09:20:35.509Z,49.47
2019-01-19T09:23:12.750Z,37.00
2019-01-19T09:25:42.626Z,36.63
2019-01-19T09:28:12.987Z,35.03
2019-01-19T09:30:43.715Z,38.33
2019-01-19T09:33:13.843Z,37.60
2019-01-19T09:35:45.779Z,38.20
2019-01-19T09:38:16.299Z,40.70
2019-01-19T09:40:46.512Z,36.87
2019-01-19T09:43:16.323Z,31.07
2019-01-19T09:45:45.964Z,42.40
2019-01-19T09:48:15.896Z,34.30
2019-01-19T09:50:45.782Z,32.47
2019-01-19T09:53:15.560Z,29.83
2019-01-19T09:55:45.826Z,30.97
2019-01-19T09:58:19.929Z,32.47
2019-01-19T10:00:49.864Z,36.37
2019-01-19T10:03:19.879Z,31.60
2019-01-19T10:05:49.968Z,31.90
2019-01-19T10:08:19.763Z,37.37
2019-01-19T10:10:49.777Z,38.40
2019-01-19T10:13:19.868Z,33.90
2019-01-19T10:15:49.949Z,32.27
2019-01-19T10:18:21.237Z,32.60
2019-01-19T10:20:51.729Z,37.27
2019-01-19T10:23:21.900Z,37.00
2019-01-19T10:25:51.604Z,34.93
2019-01-19T10:28:21.709Z,35.17
2019-01-19T10:30:51.788Z,33.23
2019-01-19T10:33:21.768Z,33.50
2019-01-19T10:35:51.345Z,37.17
2019-01-19T10:38:21.025Z,35.47
2019-01-19T10:40:50.780Z,40.03
2019-01-19T10:43:21.284Z,38.77
2019-01-19T10:45:51.512Z,38.70
2019-01-19T10:48:21.508Z,42.80
2019-01-19T10:50:51.387Z,32.83
2019-01-19T10:53:21.184Z,31.43
2019-01-19T10:55:50.878Z,32.07
2019-01-19T10:58:20.663Z,31.70
2019-01-19T11:00:52.090Z,40.40
2019-01-19T11:03:21.851Z,33.90
2019-01-19T11:05:51.945Z,32.60
2019-01-19T11:08:21.944Z,36.93
2019-01-19T11:10:51.940Z,38.53
2019-01-19T11:13:21.785Z,31.87
2019-01-19T11:15:57.902Z,34.87
2019-01-19T11:18:27.704Z,33.53
2019-01-19T11:20:57.864Z,37.37
2019-01-19T11:23:27.850Z,29.10
2019-01-19T11:25:57.774Z,31.50
2019-01-19T11:28:27.980Z,32.97
2019-01-19T11:30:58.375Z,34.40
2019-01-19T11:33:28.403Z,34.17
2019-01-19T11:36:00.152Z,35.10
2019-01-19T11:38:29.880Z,33.37
2019-01-19T11:40:59.760Z,25.97
2019-01-19T11:43:29.771Z,31.93
2019-01-19T11:46:00.130Z,36.00
2019-01-19T11:48:29.823Z,35.60
2019-01-19T11:50:59.615Z,32.37
2019-01-19T11:53:29.406Z,27.47
2019-01-19T11:55:59.745Z,28.70
2019-01-19T11:58:29.561Z,26.43
2019-01-19T12:00:59.535Z,25.30
2019-01-19T12:03:31.103Z,28.87
2019-01-19T12:06:02.693Z,24.27
2019-01-19T12:08:32.671Z,30.57
2019-01-19T12:11:02.799Z,28.73
2019-01-19T12:13:32.657Z,28.90
2019-01-19T12:16:02.495Z,32.97
2019-01-19T12:18:32.240Z,33.80
2019-01-19T12:21:02.603Z,31.63
2019-01-19T12:23:32.923Z,32.97
2019-01-19T12:26:02.831Z,33.00
2019-01-19T12:28:32.791Z,30.73
2019-01-19T12:31:02.680Z,33.27
2019-01-19T12:33:34.654Z,28.60
2019-01-19T12:36:04.339Z,27.60
2019-01-19T12:38:34.695Z,28.63
2019-01-19T12:41:04.483Z,33.60
2019-01-19T12:43:34.415Z,36.50
2019-01-19T12:46:04.578Z,33.00
2019-01-19T12:48:34.624Z,38.97
2019-01-19T12:51:04.332Z,29.73
2019-01-19T12:53:34.153Z,34.67
2019-01-19T12:56:03.829Z,32.70
2019-01-19T12:58:33.902Z,30.10
2019-01-19T13:01:03.673Z,33.23
2019-01-19T13:03:35.704Z,30.73
2019-01-19T13:06:16.109Z,32.60
2019-01-19T13:08:46.850Z,31.30
2019-01-19T13:11:35.191Z,36.73
2019-01-19T13:14:05.283Z,33.67
2019-01-19T13:16:56.317Z,34.73
2019-01-19T13:19:35.383Z,38.23
2019-01-19T13:22:26.342Z,30.37
2019-01-19T13:25:08.213Z,36.50
2019-01-19T13:27:44.440Z,36.33
2019-01-19T13:30:24.988Z,40.57
2019-01-19T13:33:10.159Z,40.73
2019-01-19T13:36:01.265Z,37.73
2019-01-19T13:39:06.789Z,33.40
2019-01-19T13:42:00.581Z,35.70
2019-01-19T13:44:45.967Z,35.90
2019-01-19T13:47:41.145Z,39.43
2019-01-19T13:50:27.712Z,32.27
2019-01-19T13:53:27.110Z,35.93
2019-01-19T13:56:30.651Z,34.70
2019-01-19T13:59:19.263Z,31.43
2019-01-19T14:02:19.387Z,34.00
2019-01-19T14:05:27.018Z,36.67
2019-01-19T14:08:18.312Z,32.80
2019-01-19T14:13:46.204Z,31.23
2019-01-19T14:16:20.779Z,36.10
2019-01-19T14:19:16.425Z,28.90
2019-01-19T14:21:53.518Z,29.83
2019-01-19T14:24:53.757Z,32.33
2019-01-19T14:27:30.449Z,35.30
2019-01-19T14:30:13.453Z,29.93
2019-01-19T14:33:07.370Z,32.93
2019-01-19T14:36:09.011Z,31.60
2019-01-19T14:41:56.396Z,40.40
2019-01-19T14:44:48.547Z,35.23
2019-01-19T14:47:24.190Z,34.67
2019-01-19T14:50:06.428Z,41.87
2019-01-19T14:52:49.113Z,33.97
2019-01-19T14:55:38.688Z,35.07
2019-01-19T14:58:24.717Z,33.50
2019-01-19T15:01:01.421Z,34.23
2019-01-19T15:03:44.387Z,38.53
2019-01-19T15:06:22.623Z,44.83
2019-01-19T15:09:03.993Z,44.87
2019-01-19T15:11:55.401Z,48.53
2019-01-19T15:14:32.420Z,46.10
2019-01-19T15:17:27.489Z,46.20
2019-01-19T15:20:13.251Z,54.00
2019-01-19T15:23:04.364Z,52.47
2019-01-19T15:26:11.377Z,56.57
2019-01-19T15:28:46.303Z,50.23
2019-01-19T15:31:20.645Z,64.67
2019-01-19T15:34:13.560Z,51.97
2019-01-19T15:37:04.747Z,40.37
2019-01-19T15:39:48.010Z,42.30
2019-01-19T15:42:38.390Z,44.77
2019-01-19T15:45:18.629Z,45.83
2019-01-19T15:48:27.061Z,48.80
2019-01-19T15:51:24.637Z,52.67
2019-01-19T15:54:06.715Z,51.00
2019-01-19T15:56:46.065Z,42.90
2019-01-19T15:59:35.962Z,45.80
2019-01-19T16:02:22.094Z,40.00
2019-01-19T16:05:31.651Z,45.70
2019-01-19T16:08:54.628Z,48.00
2019-01-19T16:11:43.595Z,48.77
2019-01-19T16:14:42.874Z,45.50
2019-01-19T16:17:30.781Z,41.83
2019-01-19T16:20:15.923Z,44.20
2019-01-19T16:22:54.894Z,46.83
2019-01-19T16:25:43.021Z,45.73
2019-01-19T16:28:35.579Z,41.87
2019-01-19T16:31:14.694Z,42.97
2019-01-19T16:33:53.454Z,43.77
2019-01-19T16:36:45.056Z,46.90
2019-01-19T16:39:25.822Z,46.20
2019-01-19T16:42:05.811Z,46.30
2019-01-19T16:44:56.581Z,50.87
2019-01-19T16:47:51.288Z,41.90
2019-01-19T16:50:46.724Z,41.43
2019-01-19T16:53:31.841Z,36.97
2019-01-19T16:56:05.163Z,46.00
2019-01-19T16:58:54.865Z,42.90
2019-01-19T17:01:33.678Z,44.73
2019-01-19T17:04:13.505Z,39.27
2019-01-19T17:06:51.878Z,44.67
2019-01-19T17:09:32.863Z,44.80
2019-01-19T17:12:14.137Z,46.50
2019-01-19T17:14:58.996Z,47.53
2019-01-19T17:18:05.884Z,34.93
2019-01-19T17:20:54.302Z,39.70
2019-01-19T17:23:48.673Z,45.97
2019-01-19T17:26:36.655Z,42.37
2019-01-19T17:29:28.013Z,43.13
2019-01-19T17:32:12.856Z,47.90
2019-01-19T17:34:54.882Z,40.93
2019-01-19T17:37:30.841Z,52.97
2019-01-19T17:40:07.839Z,70.10
2019-01-19T17:42:41.046Z,68.10
2019-01-19T17:45:30.831Z,46.43
2019-01-19T17:48:06.286Z,51.73
2019-01-19T17:50:45.256Z,49.40
2019-01-19T17:53:24.073Z,45.67
2019-01-19T17:56:06.086Z,46.03
2019-01-19T17:58:45.124Z,50.40
2019-01-19T18:01:29.964Z,51.37
2019-01-19T18:04:12.662Z,43.30
2019-01-19T18:06:54.356Z,53.50
2019-01-19T18:09:27.482Z,43.87
2019-01-19T18:12:00.438Z,47.00
2019-01-19T18:14:42.412Z,43.97
2019-01-19T18:17:30.870Z,44.50
2019-01-19T18:20:36.151Z,42.80
2019-01-19T18:23:24.510Z,44.00
2019-01-19T18:26:15.639Z,47.97
2019-01-19T18:28:58.566Z,49.57
2019-01-19T18:31:34.416Z,44.70
2019-01-19T18:34:19.163Z,43.40
2019-01-19T18:36:57.844Z,41.23
2019-01-19T18:39:36.838Z,40.00
2019-01-19T18:42:13.052Z,48.53
2019-01-19T18:45:07.251Z,46.73
2019-01-19T18:47:49.567Z,45.93
2019-01-19T18:50:32.358Z,50.33
2019-01-19T18:53:18.262Z,60.43
2019-01-19T18:55:53.947Z,51.60
2019-01-19T18:58:32.663Z,46.20
2019-01-19T19:01:08.396Z,46.93
2019-01-19T19:03:59.935Z,47.83
2019-01-19T19:07:01.562Z,41.63
2019-01-19T19:09:37.154Z,47.80
2019-01-19T19:12:16.025Z,47.03
2019-01-19T19:15:19.873Z,41.27
2019-01-19T19:18:07.727Z,54.80
2019-01-19T19:20:43.464Z,50.40
2019-01-19T19:23:22.424Z,49.83
2019-01-19T19:26:19.788Z,46.37
2019-01-19T19:28:59.020Z,52.27
2019-01-19T19:31:35.810Z,40.80
2019-01-19T19:34:11.708Z,49.87
2019-01-19T19:36:59.965Z,44.87
2019-01-19T19:39:35.670Z,45.00
2019-01-19T19:42:35.320Z,40.90
2019-01-19T19:45:08.350Z,42.77
2019-01-19T19:47:43.974Z,59.20
2019-01-19T19:50:23.090Z,43.37
2019-01-19T19:52:54.578Z,43.60
2019-01-19T19:55:23.595Z,49.17
2019-01-19T19:57:53.475Z,43.87
2019-01-19T20:00:23.161Z,46.80
2019-01-19T20:02:52.997Z,50.07
2019-01-19T20:05:22.651Z,42.70
2019-01-19T20:07:52.312Z,46.13
2019-01-19T20:10:22.560Z,50.77
2019-01-19T20:12:52.643Z,46.70
2019-01-19T20:15:22.721Z,42.57
2019-01-19T20:17:52.993Z,49.57
2019-01-19T20:20:22.844Z,45.57
2019-01-19T20:22:53.767Z,38.57
2019-01-19T20:25:24.006Z,49.17
2019-01-19T20:27:53.895Z,49.43
2019-01-19T20:30:23.820Z,39.00
2019-01-19T20:32:53.780Z,55.03
2019-01-19T20:35:25.483Z,47.70
2019-01-19T20:37:55.342Z,47.60
2019-01-19T20:40:26.522Z,47.97
2019-01-19T20:42:56.616Z,43.13
2019-01-19T20:45:27.659Z,52.80
2019-01-19T20:47:58.079Z,44.30
2019-01-19T20:50:28.089Z,46.70
2019-01-19T20:52:58.156Z,38.17
2019-01-19T20:55:28.811Z,46.33
2019-01-19T20:57:58.805Z,52.60
2019-01-19T21:00:30.717Z,59.87
2019-01-19T21:03:00.316Z,65.00
2019-01-19T21:05:30.535Z,67.23
2019-01-19T21:08:00.281Z,82.87
2019-01-19T21:10:31.975Z,60.00
2019-01-19T21:13:02.518Z,63.37
2019-01-19T21:15:32.455Z,58.30
2019-01-19T21:18:02.385Z,49.13
2019-01-19T21:20:32.416Z,51.60
2019-01-19T21:23:02.112Z,54.03
2019-01-19T21:25:31.861Z,57.73
2019-01-19T21:28:01.842Z,57.03
2019-01-19T21:30:31.512Z,56.10
2019-01-19T21:33:02.143Z,47.80
2019-01-19T21:35:32.137Z,43.83
2019-01-19T21:38:02.839Z,48.33
2019-01-19T21:40:38.906Z,44.70
2019-01-19T21:43:05.976Z,45.03
2019-01-19T21:45:36.141Z,48.30
2019-01-19T21:48:05.875Z,47.27
2019-01-19T21:50:36.448Z,44.20
2019-01-19T21:53:06.481Z,40.93
2019-01-19T21:55:36.229Z,41.23
2019-01-19T21:58:06.292Z,47.67
2019-01-19T22:00:36.367Z,42.13
2019-01-19T22:03:06.828Z,43.00
2019-01-19T22:05:37.034Z,43.53
2019-01-19T22:08:07.001Z,45.70
2019-01-19T22:10:36.962Z,42.73
2019-01-19T22:13:06.915Z,41.80
2019-01-19T22:15:37.617Z,47.03
2019-01-19T22:18:07.378Z,40.93
2019-01-19T22:20:38.042Z,50.27
2019-01-19T22:23:08.239Z,44.77
2019-01-19T22:25:38.793Z,41.70
2019-01-19T22:28:08.598Z,42.63
2019-01-19T22:30:38.994Z,47.97
2019-01-19T22:33:09.855Z,47.27
2019-01-19T22:35:39.846Z,42.40
2019-01-19T22:38:10.304Z,49.07
2019-01-19T22:40:40.060Z,39.33
2019-01-19T22:43:11.043Z,53.70
2019-01-19T22:45:40.830Z,40.93
2019-01-19T22:48:10.780Z,45.57
2019-01-19T22:50:40.585Z,43.00
2019-01-19T22:53:12.884Z,37.80
2019-01-19T22:55:42.727Z,46.53
2019-01-19T22:58:12.672Z,42.47
2019-01-19T23:00:51.437Z,48.43
2019-01-19T23:03:21.885Z,45.43
2019-01-19T23:05:52.439Z,42.37
2019-01-19T23:08:22.448Z,49.80
2019-01-19T23:10:52.346Z,45.80
2019-01-19T23:13:22.885Z,47.33
2019-01-19T23:15:52.585Z,50.00
2019-01-19T23:18:23.297Z,42.87
2019-01-19T23:20:53.379Z,47.73
2019-01-19T23:23:23.372Z,39.73
2019-01-19T23:25:53.072Z,50.50
2019-01-19T23:28:22.684Z,44.00
2019-01-19T23:30:52.323Z,42.87
2019-01-19T23:33:22.176Z,39.93
2019-01-19T23:35:52.044Z,49.63
2019-01-19T23:38:21.683Z,48.73
2019-01-19T23:40:51.630Z,52.33
2019-01-19T23:43:21.259Z,46.97
2019-01-19T23:45:51.119Z,44.00
2019-01-19T23:48:20.773Z,52.53
2019-01-19T23:50:50.504Z,53.97
2019-01-19T23:53:20.288Z,49.30
2019-01-19T23:55:49.978Z,46.43
2019-01-19T23:58:21.791Z,44.97
